createdAt,value
2023-05-25T00:01:54.339Z,17.00
2023-05-25T00:04:26.991Z,18.60
2023-05-25T00:06:54.934Z,20.10
2023-05-25T00:09:24.745Z,17.50
2023-05-25T00:11:53.044Z,16.90
2023-05-25T00:14:21.356Z,14.80
2023-05-25T00:16:49.375Z,16.60
2023-05-25T00:19:18.651Z,18.20
2023-05-25T00:21:48.353Z,17.50
2023-05-25T00:24:16.051Z,17.10
2023-05-25T00:26:43.728Z,17.60
2023-05-25T00:29:12.787Z,21.30
2023-05-25T00:31:40.574Z,19.90
2023-05-25T00:34:09.073Z,16.20
2023-05-25T00:36:36.889Z,18.40
2023-05-25T00:39:04.641Z,22.80
2023-05-25T00:41:33.505Z,19.50
2023-05-25T00:44:01.229Z,20.60
2023-05-25T00:46:29.784Z,20.30
2023-05-25T00:48:57.654Z,24.30
2023-05-25T00:51:26.836Z,21.80
2023-05-25T00:53:54.583Z,22.10
2023-05-25T00:56:28.483Z,20.30
2023-05-25T00:59:00.899Z,21.80
2023-05-25T01:01:33.719Z,19.90
2023-05-25T01:04:03.385Z,18.00
2023-05-25T01:06:33.379Z,20.40
2023-05-25T01:09:04.328Z,23.60
2023-05-25T01:11:35.109Z,21.90
2023-05-25T01:14:03.462Z,20.20
2023-05-25T01:16:32.118Z,24.40
2023-05-25T01:19:02.927Z,22.10
2023-05-25T01:22:11.179Z,22.00
2023-05-25T01:24:56.203Z,22.50
2023-05-25T01:27:46.990Z,19.50
2023-05-25T01:30:16.966Z,19.40
2023-05-25T01:32:45.692Z,20.70
2023-05-25T01:35:14.895Z,18.40
2023-05-25T01:37:46.859Z,23.00
2023-05-25T01:40:15.741Z,18.40
2023-05-25T01:42:43.539Z,20.00
2023-05-25T01:45:13.418Z,20.90
2023-05-25T01:48:13.649Z,22.90
2023-05-25T01:50:53.682Z,21.10
2023-05-25T01:53:45.832Z,19.10
2023-05-25T01:56:14.430Z,21.50
2023-05-25T01:58:47.311Z,20.00
2023-05-25T02:01:17.253Z,22.10
2023-05-25T02:03:49.063Z,22.10
2023-05-25T02:06:17.008Z,21.40
2023-05-25T02:08:45.831Z,22.70
2023-05-25T02:11:14.794Z,20.20
2023-05-25T02:13:42.664Z,22.50
2023-05-25T02:16:10.493Z,23.80
2023-05-25T02:18:38.284Z,24.40
2023-05-25T02:21:06.050Z,24.90
2023-05-25T02:23:33.750Z,21.90
2023-05-25T02:26:01.429Z,25.50
2023-05-25T02:28:29.237Z,19.20
2023-05-25T02:30:56.941Z,21.40
2023-05-25T02:33:24.713Z,21.90
2023-05-25T02:35:52.393Z,25.20
2023-05-25T02:38:20.185Z,17.40
2023-05-25T02:40:47.906Z,20.50
2023-05-25T02:43:15.716Z,19.20
2023-05-25T02:45:44.968Z,24.20
2023-05-25T02:48:13.528Z,23.10
2023-05-25T02:50:42.186Z,25.80
2023-05-25T02:53:12.506Z,23.10
2023-05-25T02:55:40.557Z,20.80
2023-05-25T02:58:10.442Z,21.60
2023-05-25T03:00:50.771Z,26.10
2023-05-25T03:03:18.992Z,23.20
2023-05-25T03:05:49.136Z,21.00
2023-05-25T03:08:17.350Z,23.30
2023-05-25T03:10:45.518Z,25.50
2023-05-25T03:13:13.384Z,19.80
2023-05-25T03:15:41.109Z,21.60
2023-05-25T03:18:08.920Z,25.60
2023-05-25T03:23:06.421Z,17.70
2023-05-25T03:25:34.392Z,19.30
2023-05-25T03:28:02.357Z,21.60
2023-05-25T03:30:30.687Z,24.90
2023-05-25T03:32:58.866Z,19.50
2023-05-25T03:35:30.829Z,21.10
2023-05-25T03:37:58.653Z,20.40
2023-05-25T03:40:26.423Z,22.10
2023-05-25T03:42:55.392Z,21.90
2023-05-25T03:45:23.167Z,27.20
2023-05-25T03:47:52.028Z,18.90
2023-05-25T03:50:21.445Z,18.80
2023-05-25T03:52:49.630Z,22.50
2023-05-25T03:55:17.803Z,24.90
2023-05-25T03:57:45.932Z,22.60
2023-05-25T04:00:14.606Z,22.50
2023-05-25T04:02:43.814Z,19.20
2023-05-25T04:05:11.641Z,21.40
2023-05-25T04:07:40.756Z,23.30
2023-05-25T04:10:09.207Z,20.30
2023-05-25T04:12:37.710Z,23.60
2023-05-25T04:15:09.201Z,21.10
2023-05-25T04:17:46.796Z,19.20
2023-05-25T04:20:14.585Z,22.40
2023-05-25T04:22:43.960Z,18.90
2023-05-25T04:27:39.344Z,20.30
2023-05-25T04:30:11.180Z,21.60
2023-05-25T04:33:03.054Z,17.80
2023-05-25T04:35:36.802Z,14.10
2023-05-25T04:38:05.048Z,17.70
2023-05-25T04:40:35.489Z,15.90
2023-05-25T04:43:05.128Z,21.80
2023-05-25T04:45:33.428Z,21.20
2023-05-25T04:50:30.924Z,20.70
2023-05-25T04:52:58.685Z,21.30
2023-05-25T04:55:26.535Z,19.50
2023-05-25T04:57:55.343Z,19.90
2023-05-25T05:00:24.046Z,16.70
2023-05-25T05:02:56.609Z,17.80
2023-05-25T05:05:24.813Z,19.70
2023-05-25T05:07:54.004Z,23.90
2023-05-25T05:10:22.083Z,19.80
2023-05-25T05:12:54.251Z,21.50
2023-05-25T05:15:22.200Z,18.80
2023-05-25T05:17:50.918Z,18.70
2023-05-25T05:20:19.037Z,15.80
2023-05-25T05:22:46.961Z,21.10
2023-05-25T05:25:14.798Z,18.30
2023-05-25T05:27:42.508Z,18.90
2023-05-25T05:30:33.086Z,20.30
2023-05-25T05:33:01.865Z,20.70
2023-05-25T05:35:32.942Z,19.50
2023-05-25T05:38:10.969Z,17.80
2023-05-25T05:40:39.116Z,19.90
2023-05-25T05:45:38.965Z,17.30
2023-05-25T05:48:11.283Z,17.20
2023-05-25T05:50:42.044Z,17.30
2023-05-25T05:53:11.356Z,19.10
2023-05-25T05:55:39.369Z,19.90
2023-05-25T05:58:07.060Z,20.60
2023-05-25T06:00:34.815Z,13.30
2023-05-25T06:03:02.620Z,21.70
2023-05-25T06:05:31.255Z,18.80
2023-05-25T06:07:59.294Z,19.60
2023-05-25T06:10:27.005Z,19.90
2023-05-25T06:12:54.932Z,21.50
2023-05-25T06:15:22.744Z,17.30
2023-05-25T06:17:51.397Z,18.40
2023-05-25T06:20:19.278Z,19.70
2023-05-25T06:22:47.252Z,17.40
2023-05-25T06:25:16.527Z,18.20
2023-05-25T06:27:44.805Z,14.10
2023-05-25T06:30:13.014Z,19.70
2023-05-25T06:32:43.249Z,20.20
2023-05-25T06:35:17.374Z,23.60
2023-05-25T06:37:49.772Z,19.30
2023-05-25T06:40:19.170Z,19.50
2023-05-25T06:42:47.048Z,18.70
2023-05-25T06:45:42.156Z,21.50
2023-05-25T06:48:10.064Z,21.80
2023-05-25T06:50:37.873Z,16.00
2023-05-25T06:53:06.158Z,21.50
2023-05-25T06:55:33.825Z,15.80
2023-05-25T06:58:01.492Z,21.50
2023-05-25T07:00:29.280Z,18.10
2023-05-25T07:02:57.060Z,19.80
2023-05-25T07:05:24.992Z,19.30
2023-05-25T07:07:52.811Z,19.70
2023-05-25T07:10:20.612Z,16.90
2023-05-25T07:12:48.307Z,16.90
2023-05-25T07:15:16.397Z,23.40
2023-05-25T07:17:45.186Z,21.30
2023-05-25T07:20:13.337Z,16.50
2023-05-25T07:22:42.239Z,18.80
2023-05-25T07:25:10.159Z,64.30
2023-05-25T07:27:38.013Z,23.60
2023-05-25T07:30:06.617Z,15.90
2023-05-25T07:32:34.477Z,20.30
2023-05-25T07:35:03.442Z,19.50
2023-05-25T07:37:31.238Z,17.90
2023-05-25T07:39:58.915Z,15.40
2023-05-25T07:42:33.757Z,19.30
2023-05-25T07:45:02.234Z,17.30
2023-05-25T07:47:30.139Z,19.10
2023-05-25T07:49:58.148Z,15.00
2023-05-25T07:52:25.866Z,17.50
2023-05-25T07:54:53.850Z,16.20
2023-05-25T07:57:21.774Z,15.40
2023-05-25T07:59:49.558Z,19.00
2023-05-25T08:02:17.296Z,15.90
2023-05-25T08:04:45.274Z,17.60
2023-05-25T08:07:13.740Z,14.60
2023-05-25T08:09:41.494Z,15.70
2023-05-25T08:12:30.757Z,15.90
2023-05-25T08:17:24.823Z,15.80
2023-05-25T08:19:52.652Z,20.00
2023-05-25T08:22:20.390Z,16.10
2023-05-25T08:24:48.104Z,18.40
2023-05-25T08:27:16.612Z,15.00
2023-05-25T08:29:44.298Z,20.90
2023-05-25T08:32:12.148Z,17.00
2023-05-25T08:34:41.963Z,13.60
2023-05-25T08:37:09.654Z,15.90
2023-05-25T08:39:37.372Z,15.20
2023-05-25T08:42:07.076Z,20.40
2023-05-25T08:44:36.861Z,13.80
2023-05-25T08:47:08.251Z,22.20
2023-05-25T08:49:38.861Z,15.50
2023-05-25T08:52:13.577Z,15.30
2023-05-25T08:54:45.212Z,15.10
2023-05-25T08:57:44.624Z,13.40
2023-05-25T09:00:15.681Z,13.30
2023-05-25T09:03:02.399Z,16.00
2023-05-25T09:05:30.767Z,14.10
2023-05-25T09:07:58.995Z,13.40
2023-05-25T09:10:28.031Z,12.30
2023-05-25T09:12:56.297Z,13.10
2023-05-25T09:15:24.105Z,13.50
2023-05-25T09:17:51.882Z,11.40
2023-05-25T09:20:20.290Z,12.60
2023-05-25T09:22:48.222Z,13.20
2023-05-25T09:25:22.732Z,12.70
2023-05-25T09:27:51.731Z,11.00
2023-05-25T09:30:19.554Z,12.20
2023-05-25T09:32:47.348Z,19.30
2023-05-25T09:35:15.861Z,15.10
2023-05-25T09:37:45.200Z,12.90
2023-05-25T09:40:14.797Z,13.00
2023-05-25T09:42:43.137Z,12.20
2023-05-25T09:45:11.149Z,11.90
2023-05-25T09:47:40.611Z,13.50
2023-05-25T09:50:09.217Z,13.40
2023-05-25T09:52:37.056Z,13.50
2023-05-25T09:55:10.399Z,12.30
2023-05-25T09:57:39.048Z,12.10
2023-05-25T10:00:08.612Z,15.20
2023-05-25T10:02:39.388Z,13.40
2023-05-25T10:05:09.358Z,13.20
2023-05-25T10:07:40.413Z,12.40
2023-05-25T10:10:10.277Z,11.00
2023-05-25T10:12:41.052Z,11.90
2023-05-25T10:15:12.639Z,10.60
2023-05-25T10:17:45.951Z,12.20
2023-05-25T10:20:15.701Z,11.20
2023-05-25T10:23:08.244Z,11.10
2023-05-25T10:25:46.832Z,12.40
2023-05-25T10:28:22.007Z,11.00
2023-05-25T10:30:51.022Z,12.00
2023-05-25T10:33:21.048Z,10.90
2023-05-25T10:36:08.567Z,12.80
2023-05-25T10:38:40.192Z,11.30
2023-05-25T10:41:11.200Z,9.80
2023-05-25T10:43:41.038Z,12.10
2023-05-25T10:46:09.571Z,11.80
2023-05-25T10:48:38.637Z,11.20
2023-05-25T10:51:11.812Z,13.20
2023-05-25T10:53:45.914Z,12.30
2023-05-25T10:56:14.576Z,11.60
2023-05-25T10:58:44.293Z,11.80
2023-05-25T11:01:13.935Z,13.50
2023-05-25T11:03:45.330Z,12.80
2023-05-25T11:06:17.836Z,11.10
2023-05-25T11:09:06.592Z,10.40
2023-05-25T11:11:43.255Z,9.70
2023-05-25T11:14:27.756Z,11.10
2023-05-25T11:17:13.120Z,11.20
2023-05-25T11:19:50.777Z,10.30
2023-05-25T11:22:23.001Z,10.90
2023-05-25T11:24:52.436Z,11.50
2023-05-25T11:27:24.373Z,11.30
2023-05-25T11:29:53.744Z,13.10
2023-05-25T11:32:23.011Z,10.60
2023-05-25T11:34:54.023Z,13.40
2023-05-25T12:01:23.565Z,10.90
2023-05-25T12:03:56.944Z,10.90
2023-05-25T12:06:33.270Z,12.60
2023-05-25T12:09:01.025Z,10.40
2023-05-25T12:11:35.831Z,9.20
2023-05-25T12:14:04.385Z,11.30
2023-05-25T12:16:34.145Z,9.30
2023-05-25T12:19:01.363Z,10.80
2023-05-25T12:21:28.275Z,9.30
2023-05-25T12:23:55.279Z,11.60
2023-05-25T12:26:22.100Z,10.10
2023-05-25T12:29:06.544Z,10.30
2023-05-25T12:31:34.993Z,11.20
2023-05-25T12:36:52.554Z,10.50
2023-05-25T12:39:31.117Z,12.20
2023-05-25T12:42:00.032Z,11.60
2023-05-25T12:44:28.175Z,9.40
2023-05-25T12:46:55.565Z,11.90
2023-05-25T12:49:30.750Z,10.30
2023-05-25T12:51:58.840Z,11.80
2023-05-25T12:54:54.348Z,11.50
2023-05-25T12:57:20.834Z,11.20
2023-05-25T12:59:47.574Z,10.60
2023-05-25T13:02:14.460Z,10.90
2023-05-25T13:04:41.440Z,14.20
2023-05-25T13:07:09.329Z,8.90
2023-05-25T13:09:36.434Z,14.00
2023-05-25T13:12:03.995Z,13.60
2023-05-25T13:14:30.486Z,8.60
2023-05-25T13:16:57.364Z,9.50
2023-05-25T13:19:25.302Z,8.70
2023-05-25T13:21:52.461Z,10.50
2023-05-25T13:24:19.151Z,9.30
2023-05-25T13:26:48.175Z,8.20
2023-05-25T13:29:16.713Z,7.10
2023-05-25T13:31:43.379Z,9.40
2023-05-25T13:34:10.095Z,8.50
2023-05-25T13:36:36.549Z,12.40
2023-05-25T13:39:04.607Z,8.50
2023-05-25T13:41:31.754Z,8.50
2023-05-25T13:43:59.877Z,11.00
2023-05-25T13:46:34.149Z,9.20
2023-05-25T13:51:28.226Z,16.30
2023-05-25T13:53:55.013Z,8.30
2023-05-25T13:56:21.734Z,10.00
2023-05-25T13:58:48.367Z,7.50
2023-05-25T14:01:15.063Z,8.00
2023-05-25T14:03:42.163Z,8.00
2023-05-25T14:06:09.010Z,8.20
2023-05-25T14:08:35.467Z,10.50
2023-05-25T14:11:02.417Z,7.90
2023-05-25T14:13:28.963Z,7.10
2023-05-25T14:15:55.646Z,7.30
2023-05-25T14:18:22.206Z,8.20
2023-05-25T14:20:49.114Z,10.20
2023-05-25T14:23:16.656Z,9.70
2023-05-25T14:25:46.354Z,10.50
2023-05-25T14:28:13.138Z,8.00
2023-05-25T14:30:39.729Z,7.80
2023-05-25T14:33:07.052Z,7.80
2023-05-25T14:35:33.777Z,9.30
2023-05-25T14:38:00.239Z,11.90
2023-05-25T14:40:26.747Z,8.00
2023-05-25T14:42:54.831Z,10.20
2023-05-25T14:45:21.231Z,9.10
2023-05-25T14:47:47.968Z,5.70
2023-05-25T14:50:14.482Z,10.90
2023-05-25T14:52:41.339Z,11.40
2023-05-25T14:55:13.114Z,10.00
2023-05-25T15:10:32.168Z,11.00
2023-05-25T15:13:00.054Z,7.60
2023-05-25T15:15:28.024Z,9.20
2023-05-25T15:17:55.936Z,8.90
2023-05-25T15:20:24.005Z,9.80
2023-05-25T15:22:53.963Z,10.70
2023-05-25T15:25:34.935Z,12.30
2023-05-25T15:28:04.111Z,13.50
2023-05-25T15:30:33.252Z,11.20
2023-05-25T15:33:02.086Z,13.00
2023-05-25T15:38:01.506Z,6.50
2023-05-25T15:42:58.018Z,11.10
2023-05-25T15:45:26.436Z,7.30
2023-05-25T15:47:54.420Z,9.00
2023-05-25T15:50:22.254Z,7.20
2023-05-25T15:52:50.301Z,10.00
2023-05-25T15:55:18.307Z,7.70
2023-05-25T15:57:46.240Z,7.60
2023-05-25T16:00:14.548Z,10.40
2023-05-25T16:02:42.297Z,7.60
2023-05-25T16:05:10.125Z,9.30
2023-05-25T16:07:37.965Z,7.70
2023-05-25T16:10:06.356Z,7.60
2023-05-25T16:12:34.125Z,11.40
2023-05-25T16:15:01.909Z,8.40
2023-05-25T16:17:30.150Z,7.90
2023-05-25T16:19:58.067Z,7.80
2023-05-25T16:22:26.244Z,12.80
2023-05-25T16:24:54.280Z,13.50
2023-05-25T16:27:22.058Z,9.60
2023-05-25T16:29:50.026Z,6.70
2023-05-25T16:32:18.534Z,8.10
2023-05-25T16:34:46.901Z,7.30
2023-05-25T16:37:14.847Z,7.80
2023-05-25T16:39:42.810Z,7.40
2023-05-25T16:42:10.830Z,8.40
2023-05-25T16:44:38.852Z,7.10
2023-05-25T16:47:06.735Z,7.60
2023-05-25T16:49:34.957Z,8.30
2023-05-25T16:52:03.044Z,10.10
2023-05-25T16:54:31.211Z,8.50
2023-05-25T16:56:59.359Z,11.40
2023-05-25T16:59:27.247Z,10.70
2023-05-25T17:01:55.881Z,8.30
2023-05-25T17:04:23.742Z,10.30
2023-05-25T17:06:51.791Z,9.00
2023-05-25T17:09:21.186Z,8.00
2023-05-25T17:11:48.982Z,7.90
2023-05-25T17:14:17.120Z,8.70
2023-05-25T17:16:44.957Z,10.10
2023-05-25T17:21:43.567Z,10.60
2023-05-25T17:24:11.358Z,6.80
2023-05-25T17:26:39.222Z,8.80
2023-05-25T17:29:07.545Z,23.80
2023-05-25T17:31:35.507Z,8.30
2023-05-25T17:34:03.969Z,9.80
2023-05-25T17:36:32.388Z,11.70
2023-05-25T17:39:00.620Z,10.20
2023-05-25T17:41:29.530Z,8.00
2023-05-25T17:43:57.958Z,8.40
2023-05-25T17:46:26.337Z,9.00
2023-05-25T17:48:54.813Z,10.30
2023-05-25T17:51:22.965Z,11.20
2023-05-25T17:53:51.439Z,9.10
2023-05-25T17:56:19.871Z,9.80
2023-05-25T17:58:48.485Z,7.30
2023-05-25T18:01:17.162Z,9.70
2023-05-25T18:03:45.801Z,7.80
2023-05-25T18:06:15.146Z,14.60
2023-05-25T18:08:44.272Z,7.60
2023-05-25T18:11:12.392Z,8.60
2023-05-25T18:13:40.686Z,8.30
2023-05-25T18:18:37.104Z,8.50
2023-05-25T18:21:05.803Z,8.90
2023-05-25T18:23:34.332Z,14.10
2023-05-25T18:26:04.394Z,12.00
2023-05-25T18:28:32.589Z,12.70
2023-05-25T18:31:00.742Z,14.10
2023-05-25T18:35:58.105Z,9.80
2023-05-25T18:38:26.054Z,11.70
2023-05-25T18:40:54.064Z,13.30
2023-05-25T18:43:22.441Z,11.40
2023-05-25T18:45:50.672Z,12.60
2023-05-25T18:48:19.869Z,12.10
2023-05-25T18:50:48.286Z,12.50
2023-05-25T18:53:17.097Z,14.50
2023-05-25T18:55:45.998Z,12.50
2023-05-25T18:58:14.456Z,11.70
2023-05-25T19:00:42.224Z,9.70
2023-05-25T19:03:11.011Z,9.50
2023-05-25T19:05:39.300Z,9.80
2023-05-25T19:08:08.330Z,10.60
2023-05-25T19:10:36.482Z,14.00
2023-05-25T19:13:06.724Z,19.70
2023-05-25T19:15:35.002Z,15.90
2023-05-25T19:18:04.630Z,11.50
2023-05-25T19:20:33.963Z,12.10
2023-05-25T19:23:04.354Z,10.70
2023-05-25T19:25:32.613Z,11.50
2023-05-25T19:28:02.876Z,11.40
2023-05-25T19:30:32.249Z,11.40
2023-05-25T19:33:00.496Z,11.10
2023-05-25T19:35:28.770Z,11.60
2023-05-25T19:37:56.536Z,13.50
2023-05-25T19:40:24.824Z,11.80
2023-05-25T19:42:53.078Z,10.20
2023-05-25T19:45:21.080Z,11.30
2023-05-25T19:47:50.019Z,9.50
2023-05-25T19:50:19.195Z,10.20
2023-05-25T19:52:47.847Z,12.60
2023-05-25T19:55:15.974Z,9.90
2023-05-25T19:57:46.315Z,10.70
2023-05-25T20:00:25.537Z,11.20
2023-05-25T20:02:55.891Z,10.30
2023-05-25T20:05:24.582Z,10.50
2023-05-25T20:07:52.797Z,12.00
2023-05-25T20:10:20.779Z,11.90
2023-05-25T20:12:49.034Z,15.30
2023-05-25T20:15:18.429Z,10.80
2023-05-25T20:17:46.466Z,11.20
2023-05-25T20:22:43.926Z,10.80
2023-05-25T20:25:12.273Z,12.10
2023-05-25T20:27:40.107Z,11.50
2023-05-25T20:30:08.827Z,12.00
2023-05-25T20:32:38.479Z,10.60
2023-05-25T20:35:06.600Z,10.70
2023-05-25T20:40:06.631Z,10.50
2023-05-25T20:42:34.508Z,11.90
2023-05-25T20:45:02.390Z,12.50
2023-05-25T20:47:30.662Z,11.30
2023-05-25T20:49:59.229Z,12.70
2023-05-25T20:52:26.984Z,11.30
2023-05-25T20:54:54.975Z,12.10
2023-05-25T20:57:22.866Z,12.40
2023-05-25T20:59:51.739Z,13.20
2023-05-25T21:04:48.115Z,11.90
2023-05-25T21:07:15.960Z,12.10
2023-05-25T21:09:43.714Z,12.40
2023-05-25T21:12:11.559Z,11.20
2023-05-25T21:14:39.377Z,11.70
2023-05-25T21:17:07.177Z,13.20
2023-05-25T21:19:34.966Z,11.40
2023-05-25T21:22:02.939Z,11.20
2023-05-25T21:24:30.860Z,13.20
2023-05-25T21:26:58.706Z,11.10
2023-05-25T21:29:26.414Z,11.40
2023-05-25T21:31:54.237Z,10.90
2023-05-25T21:34:22.288Z,10.80
2023-05-25T21:36:50.177Z,13.80
2023-05-25T21:39:18.144Z,12.80
2023-05-25T21:41:45.900Z,12.20
2023-05-25T21:44:13.708Z,11.60
2023-05-25T21:46:41.486Z,10.90
2023-05-25T21:49:09.264Z,11.20
2023-05-25T21:51:37.376Z,12.80
2023-05-25T21:54:05.405Z,12.80
2023-05-25T21:56:33.960Z,13.70
2023-05-25T21:59:01.674Z,14.40
2023-05-25T22:01:29.545Z,12.10
2023-05-25T22:03:57.482Z,9.60
2023-05-25T22:06:25.341Z,11.10
2023-05-25T22:08:53.108Z,12.10
2023-05-25T22:11:22.181Z,12.10
2023-05-25T22:13:50.371Z,10.90
2023-05-25T22:16:18.215Z,10.70
2023-05-25T22:18:46.022Z,9.90
2023-05-25T22:21:14.815Z,9.70
2023-05-25T22:23:42.567Z,13.50
2023-05-25T22:26:10.379Z,10.90
2023-05-25T22:28:38.179Z,10.30
2023-05-25T22:31:06.036Z,14.50
2023-05-25T22:33:33.856Z,9.80
2023-05-25T22:36:01.714Z,10.10
2023-05-25T22:38:29.532Z,11.00
2023-05-25T22:40:57.320Z,10.60
2023-05-25T22:43:26.997Z,10.70
2023-05-25T22:45:54.762Z,9.20
2023-05-25T22:48:22.472Z,9.50
2023-05-25T22:50:50.292Z,9.30
2023-05-25T22:53:18.129Z,11.50
2023-05-25T22:55:47.554Z,10.50
2023-05-25T23:00:44.370Z,9.20
2023-05-25T23:03:12.293Z,10.50
2023-05-25T23:05:40.234Z,11.30
2023-05-25T23:13:06.288Z,7.70
2023-05-25T23:15:40.069Z,10.00
2023-05-25T23:18:08.288Z,9.80
2023-05-25T23:20:36.219Z,12.10
2023-05-25T23:23:04.167Z,14.70
2023-05-25T23:25:32.131Z,11.60
2023-05-25T23:27:59.912Z,10.40
2023-05-25T23:30:27.694Z,11.60
2023-05-25T23:32:55.575Z,11.60
2023-05-25T23:35:23.635Z,11.50
2023-05-25T23:37:52.179Z,13.40
2023-05-25T23:40:19.988Z,11.60
2023-05-25T23:42:48.933Z,11.40
2023-05-25T23:45:16.851Z,12.10
2023-05-25T23:47:44.885Z,11.70
2023-05-25T23:50:12.721Z,10.30
2023-05-25T23:52:41.543Z,10.30
2023-05-25T23:55:10.941Z,12.10
